KCSQ/CSQ METAR and TAF weather

Enter ICAO airport designator
Station Type Date Time Source
KCSQ METAR 2018/04/26 15:15 UTC NOAA

KCSQ 261515Z AUTO 32005KT 10SM CLR 14/03 A2998 RMK AO2


Station Type Date Time Source
KCSQ Decoded METAR 2018/04/26 15:15 UTC NOAA

Creston, IA, United States (KCSQ) 41-01N 094-22W
Apr 26, 2018 - 11:15 AM EDT / 2018.04.26 1515 UTC
Wind: from the NW (320 degrees) at 6 MPH (5 KT):0
Visibility: 10 mile(s):0
Sky conditions: clear
Temperature: 57 F (14 C)
Dew Point: 37 F (3 C)
Relative Humidity: 47%
Pressure (altimeter): 29.98 in. Hg (1015 hPa)
ob: KCSQ 261515Z AUTO 32005KT 10SM CLR 14/03 A2998 RMK AO2
cycle: 15

Station Type Date Time Source
KCSQ TAF UTC NOAA

Error!


Example: see airport list